Virginia Dale, Colorado
Current Conditions -  °F | °C
As of 6:56 PM on Friday 19 Dec 2014 (Local Time) from KFEW Reporting Station
Broken Clouds Broken Clouds  
Wind Chill: 24°   Ceiling: 8500
Heat Index: 34°   Visibility: 10mi
Dew Point: 14°   Wind: 16mph
Humidity: 44%   Direction: 280°W
Pressure: 29.95"   Gusts: 25mph
Location:  40.8645°N, 105.398°W
Report Text: KFEW 200156Z AUTO 28014G22KT 10SM BKN085 01/M10 A2995 RMK AO2 SLP169 T00101100 $
Loading
Personal Weather Stations






























Interactive Weather Map New forecast layout! Learn more

10-Day Weather Forecast

Advertisements
Track Severe Weather on mobile